Time;durP1;ratioP1;P1;durP2;ratioP2;P2;SDS_P1;SDS_P2;PMS_P1;PMS_P2;Temp;Humidity;BMP_temperature;BMP_pressure;BME280_temperature;BME280_humidity;BME280_pressure;Samples;Min_cycle;Max_cycle;Signal;HPM_P1;HPM_P2
2022/12/15 00:39:39;;;;;;;10.55;5.20;;;;;;;;;;5002210;28;92607;-72
2022/12/15 00:42:06;;;;;;;8.75;4.75;;;;;;;;;;4998302;28;95011;-69
2022/12/15 00:44:32;;;;;;;9.20;4.50;;;;;;;;;;5001944;28;92409;-69
2022/12/15 00:46:59;;;;;;;9.30;5.32;;;;;;;;;;5005548;28;92787;-69
2022/12/15 01:22:35;;;;;;;9.35;4.93;;;;;;;;;;5000986;28;92283;-66
2022/12/15 01:25:01;;;;;;;8.25;4.15;;;;;;;;;;5000864;28;92840;-66
2022/12/15 01:27:28;;;;;;;9.50;4.72;;;;;;;;;;5001736;28;91649;-66
2022/12/15 01:29:54;;;;;;;8.85;4.10;;;;;;;;;;5002052;28;92075;-67
2022/12/15 01:32:20;;;;;;;8.60;4.43;;;;;;;;;;5005085;28;92624;-66
2022/12/15 01:34:47;;;;;;;9.55;4.75;;;;;;;;;;5000338;28;94512;-66
2022/12/15 01:37:13;;;;;;;8.75;4.45;;;;;;;;;;5001965;28;92428;-65
2022/12/15 01:42:25;;;;;;;9.25;4.30;;;;;;;;;;5003228;28;92790;-67
2022/12/15 01:44:52;;;;;;;10.00;4.82;;;;;;;;;;5000047;28;95238;-69
2022/12/15 01:47:21;;;;;;;11.15;4.55;;;;;;;;;;5002931;28;92377;-68
2022/12/15 01:49:48;;;;;;;8.75;4.38;;;;;;;;;;5001709;28;92945;-65
2022/12/15 01:52:15;;;;;;;8.55;4.30;;;;;;;;;;5002319;28;92797;-66
2022/12/15 01:54:45;;;;;;;7.88;4.30;;;;;;;;;;5002480;28;92659;-66
2022/12/15 01:57:17;;;;;;;9.85;4.78;;;;;;;;;;5001750;28;93190;-65
2022/12/15 01:59:47;;;;;;;8.82;4.30;;;;;;;;;;5000685;28;95051;-65
2022/12/15 02:02:14;;;;;;;8.13;4.20;;;;;;;;;;5001835;28;96022;-65
2022/12/15 02:04:40;;;;;;;9.05;4.55;;;;;;;;;;5001228;28;92499;-67
2022/12/15 02:07:11;;;;;;;8.55;4.30;;;;;;;;;;5001709;28;92507;-69
2022/12/15 02:09:38;;;;;;;8.68;4.13;;;;;;;;;;4997116;28;92276;-68
2022/12/15 02:12:10;;;;;;;7.90;4.05;;;;;;;;;;5000092;28;92779;-68
2022/12/15 02:14:43;;;;;;;8.82;4.50;;;;;;;;;;5002031;28;92431;-67
2022/12/15 02:17:14;;;;;;;14.05;4.28;;;;;;;;;;5005855;28;92833;-78
2022/12/15 02:19:55;;;;;;;13.32;4.13;;;;;;;;;;5001380;28;92324;-77
2022/12/15 02:22:34;;;;;;;11.55;4.10;;;;;;;;;;4999147;28;92926;-67
2022/12/15 02:25:06;;;;;;;11.68;4.10;;;;;;;;;;4998740;28;95094;-70
2022/12/15 02:27:35;;;;;;;14.98;5.28;;;;;;;;;;5001532;28;92362;-69
2022/12/15 02:30:05;;;;;;;15.50;4.90;;;;;;;;;;5000969;28;93814;-69
2022/12/15 02:32:46;;;;;;;8.73;4.60;;;;;;;;;;5002886;28;92767;-71
2022/12/15 02:35:15;;;;;;;10.10;4.60;;;;;;;;;;5004811;28;92359;-66
2022/12/15 02:37:43;;;;;;;10.70;4.57;;;;;;;;;;5004491;28;92860;-70
2022/12/15 02:40:10;;;;;;;9.75;4.63;;;;;;;;;;5007628;28;92576;-70
2022/12/15 02:42:48;;;;;;;11.60;5.20;;;;;;;;;;5005662;28;92292;-70
2022/12/15 02:45:18;;;;;;;12.15;4.65;;;;;;;;;;5003878;28;93764;-70
2022/12/15 02:48:03;;;;;;;9.93;4.63;;;;;;;;;;5003884;28;92282;-70
2022/12/15 02:50:48;;;;;;;10.60;4.57;;;;;;;;;;5002968;28;94756;-70
2022/12/15 02:53:14;;;;;;;11.80;4.45;;;;;;;;;;5005062;28;92622;-70
2022/12/15 02:55:45;;;;;;;10.93;4.35;;;;;;;;;;5003457;28;92125;-70
2022/12/15 02:58:34;;;;;;;10.20;4.95;;;;;;;;;;5003583;28;92244;-71
2022/12/15 03:01:13;;;;;;;11.68;4.43;;;;;;;;;;5004768;28;92604;-70
2022/12/15 03:03:41;;;;;;;10.80;4.93;;;;;;;;;;5007370;28;92437;-71
2022/12/15 03:06:07;;;;;;;13.57;5.30;;;;;;;;;;5001404;28;92599;-71
2022/12/15 03:08:34;;;;;;;9.82;4.60;;;;;;;;;;5005762;28;91693;-71
2022/12/15 03:11:00;;;;;;;10.20;4.97;;;;;;;;;;5004873;28;92544;-71
2022/12/15 03:13:27;;;;;;;11.18;4.80;;;;;;;;;;5004842;28;93133;-70
2022/12/15 03:15:54;;;;;;;10.52;4.53;;;;;;;;;;5003234;28;94752;-70
2022/12/15 03:18:20;;;;;;;10.50;4.55;;;;;;;;;;5004478;28;94722;-71
2022/12/15 03:20:48;;;;;;;8.93;4.05;;;;;;;;;;5004287;28;92519;-70
2022/12/15 03:23:15;;;;;;;8.50;4.40;;;;;;;;;;5004638;28;92176;-70
2022/12/15 03:25:43;;;;;;;10.25;4.40;;;;;;;;;;5005825;28;92432;-71
2022/12/15 03:28:09;;;;;;;10.80;4.20;;;;;;;;;;5003476;28;92242;-70
2022/12/15 03:30:36;;;;;;;10.63;4.60;;;;;;;;;;5004004;28;92568;-70
2022/12/15 03:33:02;;;;;;;10.90;4.70;;;;;;;;;;5005057;28;92348;-71
2022/12/15 03:35:29;;;;;;;11.05;5.15;;;;;;;;;;5004322;28;92456;-70
2022/12/15 03:37:55;;;;;;;9.30;4.90;;;;;;;;;;5004696;28;92291;-68
2022/12/15 03:40:22;;;;;;;9.90;4.30;;;;;;;;;;5002429;28;95059;-73
2022/12/15 03:42:48;;;;;;;10.82;4.60;;;;;;;;;;5004626;28;92026;-80
2022/12/15 03:45:16;;;;;;;9.93;4.10;;;;;;;;;;5006864;28;92796;-71
2022/12/15 03:47:42;;;;;;;;;;;;;;;;;;5005368;28;92741;-71
2022/12/15 03:50:09;;;;;;;9.68;4.40;;;;;;;;;;5004842;28;121266;-71
2022/12/15 03:52:35;;;;;;;11.65;5.18;;;;;;;;;;5004213;28;93090;-70
2022/12/15 03:55:02;;;;;;;8.90;3.92;;;;;;;;;;5003869;28;92369;-70
2022/12/15 03:57:29;;;;;;;11.00;4.70;;;;;;;;;;5004552;28;92389;-70
2022/12/15 03:59:55;;;;;;;9.90;4.47;;;;;;;;;;5003088;28;93496;-70
2022/12/15 04:02:22;;;;;;;9.68;4.70;;;;;;;;;;5004228;28;92385;-70
2022/12/15 04:04:48;;;;;;;9.38;4.70;;;;;;;;;;5002521;28;94632;-70
2022/12/15 04:07:15;;;;;;;9.50;4.75;;;;;;;;;;5006948;28;93792;-70
2022/12/15 04:09:41;;;;;;;9.57;4.40;;;;;;;;;;5003870;28;92952;-69
2022/12/15 04:12:09;;;;;;;9.50;4.38;;;;;;;;;;5003579;28;92496;-70
2022/12/15 04:14:41;;;;;;;10.02;4.60;;;;;;;;;;5003332;28;92554;-70
2022/12/15 04:17:08;;;;;;;9.55;4.60;;;;;;;;;;5004140;28;93087;-70
2022/12/15 04:22:20;;;;;;;9.07;4.45;;;;;;;;;;5004812;28;91714;-70
2022/12/15 05:33:40;;;;;;;9.77;4.88;;;;;;;;;;4990332;28;93540;-70
2022/12/15 05:36:07;;;;;;;8.80;3.88;;;;;;;;;;5002530;28;92243;-70
2022/12/15 05:38:33;;;;;;;10.30;4.55;;;;;;;;;;5002593;28;92794;-70
2022/12/15 05:40:59;;;;;;;9.30;4.20;;;;;;;;;;5002124;28;93849;-70
2022/12/15 05:43:26;;;;;;;9.20;4.60;;;;;;;;;;5005687;28;91214;-70
2022/12/15 05:45:53;;;;;;;9.82;4.93;;;;;;;;;;5001735;28;92515;-70
2022/12/15 05:48:20;;;;;;;10.15;4.43;;;;;;;;;;5002637;28;92363;-70
2022/12/15 05:50:46;;;;;;;10.52;4.47;;;;;;;;;;4999260;28;94536;-70
2022/12/15 05:53:15;;;;;;;11.10;4.95;;;;;;;;;;5002174;28;92794;-70
2022/12/15 05:55:41;;;;;;;8.70;4.10;;;;;;;;;;5001024;28;92477;-70
2022/12/15 05:58:07;;;;;;;10.68;4.38;;;;;;;;;;5002294;28;92727;-70
2022/12/15 06:00:34;;;;;;;9.60;4.50;;;;;;;;;;5001747;28;92615;-70
2022/12/15 06:03:01;;;;;;;9.48;4.55;;;;;;;;;;5005431;28;92096;-70
2022/12/15 06:05:28;;;;;;;9.95;4.32;;;;;;;;;;5001563;28;92893;-70
2022/12/15 06:07:55;;;;;;;10.20;4.50;;;;;;;;;;5001457;28;92477;-70
2022/12/15 06:10:21;;;;;;;9.52;4.55;;;;;;;;;;5001880;28;91986;-70
2022/12/15 06:12:47;;;;;;;10.13;4.90;;;;;;;;;;5000398;28;93389;-70
2022/12/15 06:15:14;;;;;;;10.73;4.55;;;;;;;;;;5000424;28;94484;-70
2022/12/15 06:17:40;;;;;;;9.45;4.50;;;;;;;;;;5002190;28;94681;-70
2022/12/15 06:20:06;;;;;;;9.38;4.75;;;;;;;;;;5001149;28;92864;-70
2022/12/15 06:22:33;;;;;;;9.20;4.30;;;;;;;;;;5001446;28;92152;-70
2022/12/15 06:24:59;;;;;;;10.18;4.53;;;;;;;;;;5004849;28;92378;-70
2022/12/15 06:27:26;;;;;;;9.95;5.13;;;;;;;;;;5001814;28;92116;-70
2022/12/15 06:29:52;;;;;;;10.43;4.88;;;;;;;;;;5001621;28;93354;-70
2022/12/15 06:32:20;;;;;;;9.05;4.60;;;;;;;;;;5002157;28;92515;-70
2022/12/15 06:34:46;;;;;;;;;;;;;;;;;;5002045;28;92079;-70
2022/12/15 06:37:12;;;;;;;;;;;;;;;;;;5002854;28;121703;-71
2022/12/15 06:39:39;;;;;;;10.05;4.50;;;;;;;;;;5000418;28;124529;-70
2022/12/15 06:42:05;;;;;;;9.98;4.57;;;;;;;;;;5001673;28;92055;-69
2022/12/15 06:44:31;;;;;;;10.15;4.70;;;;;;;;;;5001097;28;92920;-70
2022/12/15 06:46:58;;;;;;;10.07;4.60;;;;;;;;;;5004307;28;92592;-70
2022/12/15 06:49:24;;;;;;;9.25;4.55;;;;;;;;;;5001829;28;92562;-70
2022/12/15 06:51:51;;;;;;;10.25;4.55;;;;;;;;;;5000106;28;93035;-69
2022/12/15 06:54:17;;;;;;;9.55;4.50;;;;;;;;;;5001681;28;92166;-70
2022/12/15 06:56:44;;;;;;;8.82;4.60;;;;;;;;;;4984151;28;94562;-70
2022/12/15 06:59:15;;;;;;;9.93;4.43;;;;;;;;;;5000848;28;93045;-69
2022/12/15 07:01:41;;;;;;;9.13;4.60;;;;;;;;;;5001192;28;92536;-69
2022/12/15 07:04:09;;;;;;;10.38;5.30;;;;;;;;;;4999578;28;94698;-70
2022/12/15 07:06:37;;;;;;;11.02;5.25;;;;;;;;;;5001115;28;92488;-69
2022/12/15 07:09:06;;;;;;;11.02;5.30;;;;;;;;;;5004434;28;92598;-69
2022/12/15 07:11:32;;;;;;;10.73;5.22;;;;;;;;;;5001072;28;93200;-69
2022/12/15 07:13:59;;;;;;;10.10;5.32;;;;;;;;;;5001090;28;92539;-70
2022/12/15 07:16:25;;;;;;;10.90;6.00;;;;;;;;;;5001485;28;92805;-69
2022/12/15 07:18:52;;;;;;;13.00;5.88;;;;;;;;;;5003085;28;93920;-67
2022/12/15 07:21:18;;;;;;;11.35;5.03;;;;;;;;;;5003668;28;91615;-69
2022/12/15 07:23:45;;;;;;;11.80;5.70;;;;;;;;;;5004767;28;92221;-69
2022/12/15 07:26:21;;;;;;;12.50;5.80;;;;;;;;;;5004149;28;92536;-68
2022/12/15 07:28:48;;;;;;;11.57;5.07;;;;;;;;;;5002859;28;94729;-69
2022/12/15 07:31:14;;;;;;;10.95;5.00;;;;;;;;;;5007219;28;95175;-68
2022/12/15 07:33:41;;;;;;;12.25;5.35;;;;;;;;;;5001424;28;92348;-69
2022/12/15 07:36:07;;;;;;;13.05;6.22;;;;;;;;;;5001471;28;92530;-69
2022/12/15 07:38:34;;;;;;;12.82;5.63;;;;;;;;;;5002259;28;92830;-70
2022/12/15 07:41:02;;;;;;;12.20;5.57;;;;;;;;;;5003554;28;92697;-69
2022/12/15 07:43:29;;;;;;;11.73;4.93;;;;;;;;;;5002531;28;92354;-69
2022/12/15 07:45:57;;;;;;;11.30;5.38;;;;;;;;;;5003282;28;91969;-69
2022/12/15 07:48:23;;;;;;;10.82;5.05;;;;;;;;;;5003250;28;92117;-69
2022/12/15 07:50:56;;;;;;;11.13;5.10;;;;;;;;;;5006661;28;92372;-69
2022/12/15 07:53:33;;;;;;;10.00;4.70;;;;;;;;;;5002212;28;94545;-69
2022/12/15 07:56:00;;;;;;;10.45;5.00;;;;;;;;;;5003671;28;94587;-70
2022/12/15 07:58:36;;;;;;;10.23;5.35;;;;;;;;;;5003078;28;92694;-69
2022/12/15 08:01:06;;;;;;;10.65;5.47;;;;;;;;;;5002009;28;92162;-69
2022/12/15 08:03:33;;;;;;;11.90;5.38;;;;;;;;;;5002028;28;93276;-68
2022/12/15 08:06:10;;;;;;;10.68;5.85;;;;;;;;;;5003192;28;92210;-69
2022/12/15 08:08:36;;;;;;;10.70;4.55;;;;;;;;;;5003069;28;92252;-68
2022/12/15 08:11:04;;;;;;;9.73;4.78;;;;;;;;;;5003539;28;92551;-69
2022/12/15 08:13:31;;;;;;;10.35;4.90;;;;;;;;;;5005653;28;92993;-70
2022/12/15 08:16:18;;;;;;;10.63;4.88;;;;;;;;;;5002204;28;92502;-69
2022/12/15 08:18:45;;;;;;;9.68;4.68;;;;;;;;;;5001346;28;94897;-69
2022/12/15 08:21:11;;;;;;;10.38;4.90;;;;;;;;;;5003065;28;92489;-70
2022/12/15 08:23:39;;;;;;;10.65;5.03;;;;;;;;;;5002908;28;92300;-71
2022/12/15 08:26:10;;;;;;;10.95;4.72;;;;;;;;;;5002853;28;92577;-69
2022/12/15 08:28:38;;;;;;;12.15;5.40;;;;;;;;;;5001258;28;92907;-70
2022/12/15 08:31:08;;;;;;;10.88;5.50;;;;;;;;;;5002123;28;92785;-69
2022/12/15 08:33:35;;;;;;;11.60;4.90;;;;;;;;;;5002513;28;92820;-69
2022/12/15 08:36:03;;;;;;;10.73;4.93;;;;;;;;;;5006634;28;91638;-70
2022/12/15 08:38:30;;;;;;;11.82;5.38;;;;;;;;;;5002752;28;93189;-69
2022/12/15 08:40:56;;;;;;;12.13;5.45;;;;;;;;;;5002686;28;92221;-70
2022/12/15 08:43:22;;;;;;;10.93;5.65;;;;;;;;;;5000701;28;95005;-69
2022/12/15 08:45:49;;;;;;;11.70;5.28;;;;;;;;;;4997694;28;92768;-69
2022/12/15 08:48:15;;;;;;;13.20;5.80;;;;;;;;;;5002360;28;92334;-70
2022/12/15 08:50:44;;;;;;;14.43;5.50;;;;;;;;;;5002521;28;92294;-69
2022/12/15 08:53:11;;;;;;;11.57;5.18;;;;;;;;;;5001124;28;93198;-68
2022/12/15 08:56:23;;;;;;;12.13;5.35;;;;;;;;;;5002730;28;92310;-69
2022/12/15 08:58:53;;;;;;;12.85;5.40;;;;;;;;;;5003996;28;92456;-69
2022/12/15 09:01:21;;;;;;;11.95;5.53;;;;;;;;;;5003186;28;91252;-69
2022/12/15 09:03:52;;;;;;;12.38;5.30;;;;;;;;;;5002116;28;92394;-68
2022/12/15 09:06:25;;;;;;;11.68;5.28;;;;;;;;;;5001535;28;92572;-67
2022/12/15 09:08:55;;;;;;;11.50;5.70;;;;;;;;;;5000187;28;94572;-66
2022/12/15 09:11:22;;;;;;;12.55;5.35;;;;;;;;;;4999026;28;95419;-70
2022/12/15 09:13:49;;;;;;;13.63;5.78;;;;;;;;;;4982931;28;94459;-68
2022/12/15 09:16:16;;;;;;;13.02;5.32;;;;;;;;;;4997820;28;92483;-65
2022/12/15 09:18:45;;;;;;;11.32;5.28;;;;;;;;;;4998653;28;93053;-65
2022/12/15 09:21:12;;;;;;;10.93;5.10;;;;;;;;;;5001843;28;92647;-66
2022/12/15 09:23:38;;;;;;;11.55;5.38;;;;;;;;;;4995820;28;92456;-65
2022/12/15 09:26:06;;;;;;;10.80;5.25;;;;;;;;;;4997304;28;92674;-67
2022/12/15 09:28:32;;;;;;;;;;;;;;;;;;4998755;28;92245;-67
2022/12/15 09:31:27;;;;;;;11.30;5.05;;;;;;;;;;4996157;28;122868;-66
2022/12/15 09:33:54;;;;;;;12.88;5.38;;;;;;;;;;4994241;28;95079;-67
2022/12/15 09:36:21;;;;;;;11.00;5.57;;;;;;;;;;4997335;28;92407;-65
2022/12/15 09:38:47;;;;;;;12.93;5.20;;;;;;;;;;4996401;28;93457;-66
2022/12/15 09:41:14;;;;;;;10.25;4.85;;;;;;;;;;4997141;28;93557;-67
2022/12/15 09:43:45;;;;;;;14.07;5.50;;;;;;;;;;4997890;28;92383;-67
2022/12/15 09:46:23;;;;;;;11.88;5.25;;;;;;;;;;4998343;28;92697;-68
2022/12/15 09:48:50;;;;;;;11.02;5.07;;;;;;;;;;4996935;28;92848;-69
2022/12/15 09:51:17;;;;;;;10.85;5.03;;;;;;;;;;4995318;28;92570;-67
2022/12/15 09:53:44;;;;;;;11.05;5.20;;;;;;;;;;4996781;28;93397;-68
2022/12/15 09:56:24;;;;;;;10.07;5.20;;;;;;;;;;4997495;28;92428;-68
2022/12/15 09:58:58;;;;;;;10.25;5.00;;;;;;;;;;4994971;28;96210;-67
2022/12/15 10:01:28;;;;;;;10.52;5.25;;;;;;;;;;4997595;28;92739;-69
2022/12/15 10:04:05;;;;;;;10.55;5.47;;;;;;;;;;4999682;28;92470;-67
2022/12/15 10:06:39;;;;;;;11.45;5.32;;;;;;;;;;4995443;28;93735;-66
2022/12/15 10:09:16;;;;;;;10.50;5.35;;;;;;;;;;4994518;28;92583;-66
2022/12/15 10:11:42;;;;;;;10.85;4.97;;;;;;;;;;4996733;28;93287;-66
2022/12/15 10:14:28;;;;;;;10.15;5.60;;;;;;;;;;4997274;28;92677;-67
2022/12/15 10:17:03;;;;;;;11.30;5.30;;;;;;;;;;4998004;28;91870;-65
2022/12/15 10:19:32;;;;;;;11.80;6.40;;;;;;;;;;4998715;28;92685;-66
2022/12/15 10:21:59;;;;;;;11.93;5.55;;;;;;;;;;4997832;28;92934;-66
2022/12/15 10:24:28;;;;;;;10.27;5.13;;;;;;;;;;4997584;28;94496;-66
2022/12/15 10:27:20;;;;;;;11.60;5.25;;;;;;;;;;5001729;28;94735;-66
2022/12/15 10:30:00;;;;;;;9.38;4.82;;;;;;;;;;4998585;28;92939;-65
2022/12/15 10:32:56;;;;;;;10.13;5.13;;;;;;;;;;5000151;28;92367;-66
2022/12/15 10:35:26;;;;;;;9.48;4.72;;;;;;;;;;4978483;28;92608;-65
2022/12/15 10:38:03;;;;;;;9.82;5.03;;;;;;;;;;4999792;28;92109;-66
2022/12/15 10:40:50;;;;;;;10.15;5.10;;;;;;;;;;4999859;28;93485;-66
2022/12/15 10:43:46;;;;;;;10.52;5.45;;;;;;;;;;4998565;28;92167;-66
2022/12/15 10:46:17;;;;;;;10.10;5.10;;;;;;;;;;4979220;28;92723;-66
2022/12/15 10:48:45;;;;;;;10.50;5.07;;;;;;;;;;5000379;28;93046;-65
2022/12/15 10:51:30;;;;;;;9.82;5.05;;;;;;;;;;4999042;28;94959;-66
2022/12/15 10:53:59;;;;;;;8.93;4.50;;;;;;;;;;5000382;28;94646;-66
2022/12/15 10:56:26;;;;;;;9.95;4.90;;;;;;;;;;5001899;28;92735;-66
2022/12/15 10:59:19;;;;;;;9.95;4.95;;;;;;;;;;5001770;28;92065;-65
2022/12/15 11:01:45;;;;;;;10.93;4.80;;;;;;;;;;5003977;28;92680;-67
2022/12/15 11:04:26;;;;;;;9.02;5.03;;;;;;;;;;5003466;28;92983;-66
2022/12/15 11:07:00;;;;;;;9.02;4.65;;;;;;;;;;5002708;28;92236;-66
2022/12/15 11:09:34;;;;;;;9.82;4.88;;;;;;;;;;5004171;28;92659;-66
2022/12/15 11:14:46;;;;;;;;;;;;;;;;;;4994322;28;92360;-66
2022/12/15 11:17:14;;;;;;;11.02;5.30;;;;;;;;;;4999073;28;124574;-67
2022/12/15 11:19:43;;;;;;;10.15;4.90;;;;;;;;;;5002557;28;92188;-67
2022/12/15 11:22:28;;;;;;;10.27;5.38;;;;;;;;;;5001413;28;94394;-66
2022/12/15 11:24:58;;;;;;;9.73;5.53;;;;;;;;;;5002699;28;92760;-66
2022/12/15 11:27:25;;;;;;;10.38;5.18;;;;;;;;;;5003071;28;92488;-67
2022/12/15 11:29:51;;;;;;;11.35;5.57;;;;;;;;;;5002915;28;93060;-67
2022/12/15 11:32:22;;;;;;;9.95;5.20;;;;;;;;;;4999931;28;94054;-67
2022/12/15 11:34:49;;;;;;;10.10;5.00;;;;;;;;;;5003823;28;91924;-67
2022/12/15 11:37:31;;;;;;;9.95;5.05;;;;;;;;;;5005736;28;92627;-67
2022/12/15 11:40:20;;;;;;;8.63;4.55;;;;;;;;;;5003026;28;92325;-66
2022/12/15 11:42:56;;;;;;;9.23;4.95;;;;;;;;;;5001443;28;94472;-67
2022/12/15 11:45:25;;;;;;;9.43;4.60;;;;;;;;;;4999265;28;93427;-67
2022/12/15 11:47:56;;;;;;;9.23;5.07;;;;;;;;;;5002442;28;92509;-67
2022/12/15 11:50:41;;;;;;;9.15;4.90;;;;;;;;;;5001601;28;93566;-67
2022/12/15 11:53:17;;;;;;;9.88;4.85;;;;;;;;;;5000040;28;92617;-67
2022/12/15 11:55:43;;;;;;;9.88;5.07;;;;;;;;;;5003150;28;92570;-67
2022/12/15 11:58:15;;;;;;;9.23;4.63;;;;;;;;;;5002402;28;93257;-66
2022/12/15 12:00:45;;;;;;;8.88;4.60;;;;;;;;;;5005538;28;92559;-65
2022/12/15 12:03:22;;;;;;;10.98;5.75;;;;;;;;;;5000712;28;92398;-65
2022/12/15 12:05:51;;;;;;;9.93;4.78;;;;;;;;;;4998885;28;92593;-66
2022/12/15 12:08:27;;;;;;;10.10;4.97;;;;;;;;;;5000912;28;94448;-65
2022/12/15 12:10:54;;;;;;;9.35;4.80;;;;;;;;;;5002722;28;94672;-67
2022/12/15 12:13:40;;;;;;;10.20;5.20;;;;;;;;;;5002529;28;92969;-66
2022/12/15 12:16:18;;;;;;;10.73;5.35;;;;;;;;;;5001424;28;92438;-65
2022/12/15 12:18:50;;;;;;;9.82;5.18;;;;;;;;;;5001720;28;92713;-66
2022/12/15 12:21:19;;;;;;;10.55;5.00;;;;;;;;;;5005445;28;92742;-66
2022/12/15 12:23:52;;;;;;;10.45;5.70;;;;;;;;;;4998773;28;93921;-65
2022/12/15 12:26:19;;;;;;;10.80;5.68;;;;;;;;;;5003216;28;92894;-65
2022/12/15 12:29:03;;;;;;;11.48;5.90;;;;;;;;;;5002606;28;92630;-66
2022/12/15 12:31:56;;;;;;;11.20;5.22;;;;;;;;;;5001798;28;92038;-67
2022/12/15 12:34:49;;;;;;;9.73;4.82;;;;;;;;;;4996762;28;94927;-68
2022/12/15 12:37:38;;;;;;;10.52;5.40;;;;;;;;;;5002028;28;92617;-67
2022/12/15 12:40:25;;;;;;;10.13;5.15;;;;;;;;;;4999365;28;92903;-67
2022/12/15 12:42:55;;;;;;;11.30;5.32;;;;;;;;;;5000329;28;92641;-67
2022/12/15 12:45:25;;;;;;;10.48;5.38;;;;;;;;;;5004349;28;93209;-68
2022/12/15 12:47:53;;;;;;;10.93;5.43;;;;;;;;;;5001666;28;92857;-67
2022/12/15 12:50:22;;;;;;;13.02;5.50;;;;;;;;;;5001911;28;92298;-68
2022/12/15 12:52:50;;;;;;;9.80;5.20;;;;;;;;;;5002407;28;92332;-68
2022/12/15 12:55:20;;;;;;;11.45;5.03;;;;;;;;;;5000722;28;93196;-67
2022/12/15 12:57:46;;;;;;;10.23;5.80;;;;;;;;;;5002811;28;92826;-68
2022/12/15 13:00:17;;;;;;;12.57;5.45;;;;;;;;;;5000159;28;94489;-67
2022/12/15 13:03:07;;;;;;;12.35;6.60;;;;;;;;;;5001675;28;92574;-68
2022/12/15 13:05:36;;;;;;;12.82;5.53;;;;;;;;;;4995319;28;92262;-67
2022/12/15 13:08:02;;;;;;;11.68;6.00;;;;;;;;;;5004749;28;92806;-68
2022/12/15 13:10:28;;;;;;;10.30;5.47;;;;;;;;;;5001694;28;92741;-67
2022/12/15 13:12:58;;;;;;;12.10;5.60;;;;;;;;;;5001873;28;92297;-68
2022/12/15 13:15:27;;;;;;;14.02;7.20;;;;;;;;;;4999766;28;93603;-68
2022/12/15 13:17:56;;;;;;;10.98;5.57;;;;;;;;;;5002067;28;91547;-67
2022/12/15 13:20:28;;;;;;;11.95;6.00;;;;;;;;;;5001577;28;92446;-67
2022/12/15 13:22:55;;;;;;;11.48;5.70;;;;;;;;;;5001199;28;92708;-67
2022/12/15 13:25:36;;;;;;;10.48;6.18;;;;;;;;;;4999187;28;94722;-68
2022/12/15 13:28:21;;;;;;;12.43;6.03;;;;;;;;;;4998938;28;94716;-67
2022/12/15 13:31:06;;;;;;;10.80;6.07;;;;;;;;;;5003886;28;92499;-68
2022/12/15 13:33:33;;;;;;;11.13;5.57;;;;;;;;;;5000138;28;92069;-67
2022/12/15 13:36:00;;;;;;;11.75;6.00;;;;;;;;;;5000756;28;92599;-67
2022/12/15 13:38:46;;;;;;;11.90;5.97;;;;;;;;;;4999980;28;92388;-67
2022/12/15 13:41:22;;;;;;;11.07;5.68;;;;;;;;;;5002233;28;92516;-66
2022/12/15 13:43:50;;;;;;;10.75;5.90;;;;;;;;;;4999138;28;92362;-67
2022/12/15 13:46:23;;;;;;;12.45;5.55;;;;;;;;;;5000390;28;93573;-67
2022/12/15 13:49:02;;;;;;;10.65;5.72;;;;;;;;;;5000467;28;92765;-68
2022/12/15 13:51:29;;;;;;;11.02;6.00;;;;;;;;;;5000644;28;96253;-68
2022/12/15 13:54:10;;;;;;;10.98;5.97;;;;;;;;;;5003601;28;92303;-69
2022/12/15 13:56:55;;;;;;;10.57;5.78;;;;;;;;;;5001804;28;92599;-68
2022/12/15 13:59:27;;;;;;;10.77;5.72;;;;;;;;;;5000460;28;92600;-68
2022/12/15 14:01:53;;;;;;;12.90;6.22;;;;;;;;;;5003422;28;92278;-68
2022/12/15 14:04:20;;;;;;;9.82;5.53;;;;;;;;;;5012604;28;94526;-67
2022/12/15 14:06:54;;;;;;;10.10;5.25;;;;;;;;;;4998114;28;92324;-67
2022/12/15 14:09:24;;;;;;;11.65;5.63;;;;;;;;;;4998739;28;91630;-68
2022/12/15 14:11:50;;;;;;;10.48;5.80;;;;;;;;;;5000623;28;92565;-67
2022/12/15 14:14:42;;;;;;;12.10;5.68;;;;;;;;;;5000622;28;92355;-68
2022/12/15 14:17:12;;;;;;;12.35;5.85;;;;;;;;;;5002981;28;94878;-68
2022/12/15 14:19:39;;;;;;;11.48;5.68;;;;;;;;;;5001384;28;93742;-67
2022/12/15 14:22:06;;;;;;;;;;;;;;;;;;5003583;28;92265;-68
2022/12/15 14:24:33;;;;;;;10.77;5.60;;;;;;;;;;5001211;28;121972;-68
2022/12/15 14:27:05;;;;;;;11.00;5.68;;;;;;;;;;4999969;28;92358;-68
2022/12/15 14:29:31;;;;;;;10.45;5.70;;;;;;;;;;4999006;28;92333;-70
2022/12/15 14:31:58;;;;;;;11.25;5.95;;;;;;;;;;4976890;28;96220;-70
2022/12/15 14:34:34;;;;;;;11.00;6.03;;;;;;;;;;4994720;28;91732;-69
2022/12/15 14:37:04;;;;;;;10.80;5.70;;;;;;;;;;4997891;28;92617;-68
2022/12/15 14:39:42;;;;;;;12.02;6.22;;;;;;;;;;4996091;28;92628;-70
2022/12/15 14:42:17;;;;;;;11.32;5.93;;;;;;;;;;4994218;28;94852;-69
2022/12/15 14:44:45;;;;;;;15.15;6.38;;;;;;;;;;4995079;28;92614;-67
2022/12/15 14:47:27;;;;;;;11.57;5.45;;;;;;;;;;4997145;28;93334;-65
2022/12/15 14:49:55;;;;;;;13.07;5.90;;;;;;;;;;4999295;28;93763;-65
2022/12/15 14:52:27;;;;;;;11.85;5.95;;;;;;;;;;4997220;28;92701;-65
2022/12/15 14:54:55;;;;;;;10.93;5.97;;;;;;;;;;4999297;28;92169;-65
2022/12/15 14:57:24;;;;;;;11.65;5.53;;;;;;;;;;4996014;28;93039;-66
2022/12/15 14:59:51;;;;;;;12.57;6.22;;;;;;;;;;4998691;28;91827;-65
2022/12/15 15:02:18;;;;;;;11.23;6.25;;;;;;;;;;4996835;28;91990;-65
2022/12/15 15:04:58;;;;;;;12.35;6.00;;;;;;;;;;4997614;28;92590;-65
2022/12/15 15:07:25;;;;;;;;;;;;;;;;;;4994252;28;96386;-65
2022/12/15 15:09:51;;;;;;;12.07;6.07;;;;;;;;;;5000127;28;120586;-65
2022/12/15 15:12:19;;;;;;;12.55;6.07;;;;;;;;;;4998389;28;93559;-65
2022/12/15 15:14:53;;;;;;;11.95;6.25;;;;;;;;;;4997869;28;92317;-65
2022/12/15 15:17:22;;;;;;;11.05;6.00;;;;;;;;;;4998806;28;93148;-65
2022/12/15 15:19:52;;;;;;;12.57;5.90;;;;;;;;;;4997851;28;92559;-65
2022/12/15 15:22:24;;;;;;;10.35;5.80;;;;;;;;;;5000355;28;92474;-64
2022/12/15 15:24:51;;;;;;;11.23;6.00;;;;;;;;;;4997224;28;91547;-65
2022/12/15 15:27:29;;;;;;;12.68;6.35;;;;;;;;;;4998578;28;92021;-65
2022/12/15 15:30:16;;;;;;;14.23;6.35;;;;;;;;;;4995337;28;92677;-65
2022/12/15 15:32:50;;;;;;;12.32;5.95;;;;;;;;;;4998106;28;95186;-64
2022/12/15 15:35:17;;;;;;;12.00;6.40;;;;;;;;;;4997255;28;92834;-65
2022/12/15 15:37:44;;;;;;;;;;;;;;;;;;4996935;28;93546;-65
2022/12/15 15:40:12;;;;;;;13.38;6.50;;;;;;;;;;4998932;28;123179;-66
2022/12/15 15:42:38;;;;;;;13.55;7.00;;;;;;;;;;5001396;28;92387;-65
2022/12/15 15:45:09;;;;;;;14.07;7.32;;;;;;;;;;5002796;28;92681;-65
2022/12/15 15:47:35;;;;;;;12.13;6.82;;;;;;;;;;5000973;28;92567;-65
2022/12/15 15:50:02;;;;;;;12.48;6.93;;;;;;;;;;5000643;28;92448;-65
2022/12/15 15:52:30;;;;;;;12.77;7.72;;;;;;;;;;4999061;28;92888;-65
2022/12/15 15:54:57;;;;;;;13.27;7.55;;;;;;;;;;5000168;28;93629;-65
2022/12/15 15:57:24;;;;;;;14.18;6.75;;;;;;;;;;4997620;28;94674;-65
2022/12/15 15:59:50;;;;;;;12.73;7.57;;;;;;;;;;5000013;28;92601;-65
2022/12/15 16:02:16;;;;;;;13.90;7.07;;;;;;;;;;4998559;28;92527;-65
2022/12/15 16:04:43;;;;;;;12.95;6.55;;;;;;;;;;5002405;28;92564;-66
2022/12/15 16:07:14;;;;;;;14.27;7.68;;;;;;;;;;5001305;28;92627;-65
2022/12/15 16:09:41;;;;;;;12.88;6.95;;;;;;;;;;5000072;28;93890;-65
2022/12/15 16:12:19;;;;;;;15.23;7.18;;;;;;;;;;5015831;28;93023;-65
2022/12/15 16:14:45;;;;;;;15.27;7.57;;;;;;;;;;4999953;28;91718;-65
2022/12/15 16:17:13;;;;;;;13.48;6.97;;;;;;;;;;4999661;28;92536;-65
2022/12/15 16:19:39;;;;;;;13.70;7.35;;;;;;;;;;5000071;28;93003;-66
2022/12/15 16:22:08;;;;;;;13.15;6.88;;;;;;;;;;4999604;28;94590;-66
2022/12/15 16:24:34;;;;;;;14.43;7.40;;;;;;;;;;5000730;28;95148;-68
2022/12/15 16:27:01;;;;;;;15.13;7.07;;;;;;;;;;5001373;28;94666;-68
2022/12/15 16:29:27;;;;;;;14.48;7.43;;;;;;;;;;5000315;28;93835;-67
2022/12/15 16:31:54;;;;;;;14.50;7.65;;;;;;;;;;4998723;28;93307;-66
2022/12/15 16:34:23;;;;;;;15.80;8.32;;;;;;;;;;5001953;28;92420;-66
2022/12/15 16:36:49;;;;;;;14.70;7.97;;;;;;;;;;5002871;28;92318;-66
2022/12/15 16:39:32;;;;;;;14.35;8.38;;;;;;;;;;5000216;28;91972;-66
2022/12/15 16:41:58;;;;;;;16.77;8.27;;;;;;;;;;4999910;28;92018;-66
2022/12/15 16:44:26;;;;;;;15.10;7.97;;;;;;;;;;5001266;28;92234;-66
2022/12/15 16:46:52;;;;;;;14.65;7.97;;;;;;;;;;4998835;28;95022;-66
2022/12/15 16:49:19;;;;;;;13.77;7.68;;;;;;;;;;5007275;28;92346;-66
2022/12/15 16:51:46;;;;;;;13.82;7.85;;;;;;;;;;5000386;28;92081;-66
2022/12/15 16:54:15;;;;;;;14.80;8.32;;;;;;;;;;4999948;28;92218;-66
2022/12/15 16:56:41;;;;;;;14.00;7.80;;;;;;;;;;5001631;28;92644;-66
2022/12/15 16:59:18;;;;;;;13.60;8.07;;;;;;;;;;5001618;28;93263;-66
2022/12/15 17:02:14;;;;;;;12.88;7.47;;;;;;;;;;5001186;28;92274;-67
2022/12/15 17:04:41;;;;;;;15.13;8.07;;;;;;;;;;5001812;28;91750;-66
2022/12/15 17:07:08;;;;;;;13.02;7.25;;;;;;;;;;5001286;28;92720;-67
2022/12/15 17:09:36;;;;;;;13.75;7.93;;;;;;;;;;5000958;28;92331;-67
2022/12/15 17:12:03;;;;;;;15.25;8.00;;;;;;;;;;5000761;28;94351;-65
2022/12/15 17:14:29;;;;;;;13.70;7.63;;;;;;;;;;5000122;28;92403;-66
2022/12/15 17:16:56;;;;;;;12.90;7.93;;;;;;;;;;5000363;28;92642;-66
2022/12/15 17:19:22;;;;;;;14.02;8.20;;;;;;;;;;5000728;28;92808;-66
2022/12/15 17:21:51;;;;;;;14.50;9.18;;;;;;;;;;4999599;28;92337;-66
2022/12/15 17:24:19;;;;;;;15.88;7.95;;;;;;;;;;4997306;28;92307;-65